Time;durP1;ratioP1;P1;durP2;ratioP2;P2;SDS_P1;SDS_P2;PMS_P1;PMS_P2;Temp;Humidity;BMP_temperature;BMP_pressure;BME280_temperature;BME280_humidity;BME280_pressure;Samples;Min_cycle;Max_cycle;Signal;HPM_P1;HPM_P2
2023/04/29 00:00:06;;;;;;;3.10;2.33;;;;;;;14.42;66.06;97427.00;8282354;28;20436;-67
2023/04/29 00:04:09;;;;;;;2.63;2.20;;;;;;;15.00;66.08;97509.94;8281897;28;20232;-68
2023/04/29 00:08:12;;;;;;;2.30;1.93;;;;;;;14.97;66.35;97500.56;8282034;28;20409;-68
2023/04/29 00:12:15;;;;;;;2.03;1.87;;;;;;;15.00;65.69;97507.34;8281291;28;20246;-68
2023/04/29 00:16:19;;;;;;;2.43;2.10;;;;;;;14.97;65.77;97510.19;8280945;28;20525;-68
2023/04/29 00:20:22;;;;;;;2.30;2.07;;;;;;;14.67;66.34;97485.28;8281690;28;20237;-68
2023/04/29 00:24:25;;;;;;;2.40;2.20;;;;;;;14.75;66.20;97519.47;8280680;28;20344;-68
2023/04/29 00:28:28;;;;;;;3.33;2.00;;;;;;;14.70;66.48;97516.34;8263780;28;20230;-68
2023/04/29 00:32:32;;;;;;;2.13;1.93;;;;;;;14.80;65.60;97519.16;8281063;28;20587;-69
2023/04/29 00:36:35;;;;;;;2.20;1.80;;;;;;;14.68;65.75;97502.59;8280882;28;20249;-68
2023/04/29 00:40:38;;;;;;;2.50;2.30;;;;;;;14.63;66.40;97509.88;8280734;28;20234;-68
2023/04/29 00:44:41;;;;;;;2.97;1.90;;;;;;;14.61;65.94;97503.94;8280695;28;20238;-68
2023/04/29 00:48:45;;;;;;;2.00;1.90;;;;;;;14.71;65.24;97511.97;8280725;28;20519;-68
2023/04/29 00:52:48;;;;;;;2.40;2.00;;;;;;;14.66;65.45;97509.69;8280303;28;20230;-67
2023/04/29 00:56:51;;;;;;;2.27;1.90;;;;;;;14.59;64.68;97511.88;8280108;28;20238;-68
2023/04/29 01:00:54;;;;;;;2.63;2.27;;;;;;;14.58;64.66;97514.56;8280116;28;20526;-67
2023/04/29 01:05:00;;;;;;;2.00;1.90;;;;;;;14.53;64.50;97520.06;8280051;28;20238;-68
2023/04/29 01:09:14;;;;;;;2.40;2.30;;;;;;;14.59;63.79;97521.47;8279919;28;20237;-68
2023/04/29 01:13:18;;;;;;;1.90;1.80;;;;;;;14.46;63.25;97519.63;8279605;28;20325;-69
2023/04/29 01:17:25;;;;;;;2.10;1.90;;;;;;;14.38;63.42;97524.53;8279928;28;20234;-67
2023/04/29 01:21:30;;;;;;;2.10;2.00;;;;;;;14.36;62.63;97520.38;8279445;28;20563;-68
2023/04/29 01:25:35;;;;;;;1.90;1.80;;;;;;;14.28;62.38;97515.69;8279475;28;20237;-68
2023/04/29 01:29:44;;;;;;;2.10;1.90;;;;;;;13.64;62.43;97406.22;8279434;28;20241;-67
2023/04/29 01:33:51;;;;;;;2.00;1.90;;;;;;;14.20;62.87;97499.72;8278708;28;20243;-68
2023/04/29 01:37:58;;;;;;;2.30;2.10;;;;;;;14.16;61.85;97498.25;8279215;28;20399;-67
2023/04/29 01:42:11;;;;;;;2.10;1.90;;;;;;;14.04;62.24;97511.13;8278849;28;20239;-67
2023/04/29 01:46:17;;;;;;;2.07;1.97;;;;;;;13.60;62.66;97442.00;8279114;28;20236;-67
2023/04/29 01:50:20;;;;;;;2.00;1.80;;;;;;;13.93;62.54;97511.00;8278667;28;20237;-68
2023/04/29 01:54:23;;;;;;;1.20;1.20;;;;;;;13.98;62.54;97511.53;8278762;28;20234;-67
2023/04/29 01:58:28;;;;;;;1.17;1.17;;;;;;;14.02;63.13;97514.78;8279024;28;20227;-67
2023/04/29 02:02:32;;;;;;;1.10;1.00;;;;;;;14.05;63.10;97520.63;8279119;28;20231;-68
2023/04/29 02:06:35;;;;;;;0.80;0.80;;;;;;;13.98;63.17;97524.56;8278369;28;20242;-67
2023/04/29 02:10:38;;;;;;;0.93;0.93;;;;;;;13.88;62.58;97513.91;8278797;28;20242;-68
2023/04/29 02:14:42;;;;;;;1.20;1.20;;;;;;;13.88;62.50;97508.72;8278893;28;20232;-68
2023/04/29 02:18:45;;;;;;;1.00;1.00;;;;;;;13.88;62.25;97515.69;8278628;28;20230;-67
2023/04/29 02:22:48;;;;;;;1.70;1.60;;;;;;;13.84;62.12;97514.19;8277856;28;20504;-67
2023/04/29 02:26:51;;;;;;;1.70;1.40;;;;;;;13.74;62.01;97519.16;8278306;28;20228;-67
2023/04/29 02:30:55;;;;;;;1.37;1.37;;;;;;;13.69;62.75;97514.28;8278353;28;20232;-68
2023/04/29 02:34:58;;;;;;;1.83;1.40;;;;;;;13.74;62.47;97511.34;8278175;28;20235;-68
2023/04/29 02:39:01;;;;;;;1.83;1.73;;;;;;;13.67;63.33;97515.31;8278229;28;20430;-67
2023/04/29 02:43:03;;;;;;;2.23;1.77;;;;;;;13.65;62.69;97505.00;8278296;28;20231;-68
2023/04/29 02:47:08;;;;;;;3.07;1.97;;;;;;;13.44;63.20;97475.13;8282595;28;20231;-68
2023/04/29 02:51:11;;;;;;;2.17;2.00;;;;;;;13.73;63.59;97514.06;8284010;28;20228;-67
2023/04/29 02:55:14;;;;;;;2.73;2.27;;;;;;;13.75;63.40;97513.03;8283958;28;20239;-68
2023/04/29 02:59:16;;;;;;;2.67;2.47;;;;;;;13.73;63.88;97516.66;8283896;28;20232;-67
2023/04/29 03:03:21;;;;;;;2.50;2.40;;;;;;;13.79;63.70;97518.88;8283030;28;20227;-68
2023/04/29 03:07:28;;;;;;;2.30;2.20;;;;;;;13.75;64.03;97523.44;8283587;28;20245;-68
2023/04/29 03:11:31;;;;;;;2.50;2.40;;;;;;;13.76;63.43;97525.09;8283383;28;20231;-67
2023/04/29 03:15:34;;;;;;;2.30;2.10;;;;;;;13.77;63.59;97521.59;8283466;28;20263;-67
2023/04/29 03:19:38;;;;;;;3.03;2.83;;;;;;;13.78;63.75;97527.63;8283410;28;20232;-68
2023/04/29 03:23:41;;;;;;;2.90;2.80;;;;;;;13.74;64.15;97520.94;8283479;28;20240;-68
2023/04/29 03:27:44;;;;;;;3.00;2.80;;;;;;;13.76;64.34;97526.88;8283219;28;20232;-68
2023/04/29 03:31:47;;;;;;;3.23;3.00;;;;;;;13.73;64.45;97529.66;8282890;28;20243;-67
2023/04/29 03:35:51;;;;;;;4.13;3.83;;;;;;;13.60;65.21;97529.63;8283029;28;20341;-68
2023/04/29 03:39:54;;;;;;;3.53;3.33;;;;;;;13.78;65.13;97533.66;8282493;28;20244;-67
2023/04/29 03:43:59;;;;;;;3.20;3.00;;;;;;;13.82;64.98;97532.53;8282800;28;20239;-68
2023/04/29 03:48:02;;;;;;;4.03;3.73;;;;;;;13.87;65.42;97537.44;8283007;28;20231;-68
2023/04/29 03:52:06;;;;;;;3.57;3.37;;;;;;;13.79;65.54;97532.72;8282743;28;20390;-68
2023/04/29 03:56:09;;;;;;;4.00;3.70;;;;;;;13.82;65.63;97539.50;8281734;28;20235;-67
2023/04/29 04:00:13;;;;;;;4.23;3.93;;;;;;;13.89;65.56;97535.56;8282229;28;20232;-68
2023/04/29 04:04:16;;;;;;;4.50;4.10;;;;;;;14.00;65.47;97548.72;8282421;28;20241;-68
2023/04/29 04:08:20;;;;;;;3.50;3.30;;;;;;;13.95;65.03;97548.19;8281912;28;20521;-68
2023/04/29 04:12:23;;;;;;;3.47;3.17;;;;;;;13.96;64.49;97552.47;8281787;28;20228;-68
2023/04/29 04:16:26;;;;;;;2.90;2.70;;;;;;;13.94;63.67;97556.13;8281574;28;20231;-68
2023/04/29 04:20:30;;;;;;;3.10;2.80;;;;;;;14.04;63.68;97564.97;8281519;28;20235;-68
2023/04/29 04:24:35;;;;;;;3.97;3.63;;;;;;;13.99;63.56;97570.50;8281015;28;20249;-68
2023/04/29 04:28:37;;;;;;;3.77;3.50;;;;;;;13.97;63.87;97568.91;8281092;28;20251;-68
2023/04/29 04:32:40;;;;;;;3.57;3.37;;;;;;;13.99;63.83;97583.53;8263930;28;20247;-68
2023/04/29 04:36:44;;;;;;;2.97;2.77;;;;;;;13.88;63.70;97578.16;8281165;28;20238;-68
2023/04/29 04:40:51;;;;;;;3.73;3.43;;;;;;;13.96;64.11;97577.66;8280737;28;20418;-68
2023/04/29 04:44:54;;;;;;;3.70;3.50;;;;;;;14.01;64.72;97581.66;8280320;28;20244;-67
2023/04/29 04:48:57;;;;;;;3.70;3.40;;;;;;;14.02;64.61;97567.69;8280789;28;20239;-68
2023/04/29 04:53:06;;;;;;;4.00;3.77;;;;;;;14.14;65.16;97586.88;8279557;28;20271;-68
2023/04/29 04:57:10;;;;;;;3.77;3.50;;;;;;;14.15;64.87;97583.34;8280443;28;20299;-68
2023/04/29 05:01:13;;;;;;;3.90;3.70;;;;;;;13.89;64.77;97546.81;8280397;28;20242;-67
2023/04/29 05:05:17;;;;;;;4.27;3.97;;;;;;;14.29;64.97;97595.47;8280848;28;20237;-69
2023/04/29 05:09:22;;;;;;;4.03;3.83;;;;;;;14.37;65.20;97597.56;8279586;28;20366;-68
2023/04/29 05:13:26;;;;;;;4.00;3.70;;;;;;;14.42;65.24;97603.31;8280105;28;20228;-68
2023/04/29 05:17:29;;;;;;;3.90;3.63;;;;;;;14.56;64.84;97607.63;8280598;28;20237;-68
2023/04/29 05:21:32;;;;;;;5.10;4.80;;;;;;;14.67;65.09;97605.16;8280483;28;20232;-68
2023/04/29 05:25:35;;;;;;;4.17;3.87;;;;;;;14.76;65.09;97607.16;8279541;28;20435;-67
2023/04/29 05:29:39;;;;;;;4.53;4.23;;;;;;;14.74;65.41;97601.22;8279471;28;20323;-68
2023/04/29 05:33:42;;;;;;;4.53;4.23;;;;;;;14.71;65.64;97611.84;8279757;28;20233;-68
2023/04/29 05:37:45;;;;;;;4.30;4.00;;;;;;;14.77;65.51;97603.59;8279079;28;20527;-68
2023/04/29 05:41:48;;;;;;;4.10;3.77;;;;;;;14.73;65.09;97616.94;8279225;28;20287;-67
2023/04/29 05:45:52;;;;;;;5.03;4.63;;;;;;;14.76;65.32;97609.75;8279045;28;20529;-67
2023/04/29 05:49:55;;;;;;;7.00;6.37;;;;;;;14.70;66.49;97607.56;8279243;28;20485;-67
2023/04/29 05:53:59;;;;;;;6.27;5.77;;;;;;;14.89;66.84;97620.22;8278804;28;20234;-67
2023/04/29 05:58:02;;;;;;;6.73;6.23;;;;;;;15.03;66.91;97633.13;8278924;28;20316;-68
2023/04/29 06:02:06;;;;;;;6.23;5.63;;;;;;;15.20;66.87;97644.19;8278680;28;20514;-68
2023/04/29 06:06:09;;;;;;;6.70;6.20;;;;;;;15.05;67.28;97625.22;8278641;28;20230;-69
2023/04/29 06:10:14;;;;;;;6.73;6.23;;;;;;;15.29;66.82;97653.16;8278788;28;20506;-69
2023/04/29 06:14:17;;;;;;;7.23;6.53;;;;;;;15.23;67.49;97638.75;8278415;28;20316;-69
2023/04/29 06:18:21;;;;;;;7.17;6.47;;;;;;;15.40;66.72;97642.81;8278183;28;20418;-69
2023/04/29 06:22:24;;;;;;;7.70;7.10;;;;;;;15.41;66.70;97655.75;8284011;28;20238;-69
2023/04/29 06:26:26;;;;;;;6.97;6.47;;;;;;;15.55;66.80;97661.81;8284620;28;20242;-69
2023/04/29 06:30:29;;;;;;;5.13;4.73;;;;;;;15.72;67.61;97650.19;8284924;28;20230;-70
2023/04/29 06:34:33;;;;;;;6.53;6.10;;;;;;;15.69;66.38;97669.53;8284961;28;20430;-69
2023/04/29 06:38:36;;;;;;;7.07;6.47;;;;;;;15.79;65.72;97654.91;8284971;28;20234;-69
2023/04/29 06:42:39;;;;;;;6.80;6.30;;;;;;;15.92;65.24;97669.72;8284829;28;20231;-70
2023/04/29 06:46:42;;;;;;;7.00;6.50;;;;;;;16.03;65.39;97678.44;8284745;28;20297;-70
2023/04/29 06:50:53;;;;;;;5.97;5.57;;;;;;;15.69;65.22;97606.88;8284572;28;20299;-69
2023/04/29 06:54:56;;;;;;;7.27;6.67;;;;;;;16.00;65.70;97677.84;8283787;28;20256;-70
2023/04/29 06:58:59;;;;;;;7.00;6.40;;;;;;;15.97;65.92;97665.84;8284564;28;20235;-70
2023/04/29 07:03:02;;;;;;;7.07;6.30;;;;;;;16.08;65.84;97687.72;8284258;28;20241;-70
2023/04/29 07:07:07;;;;;;;6.47;5.97;;;;;;;16.28;65.33;97688.91;8284074;28;20314;-70
2023/04/29 07:11:09;;;;;;;7.30;6.70;;;;;;;15.91;65.66;97699.38;8284303;28;20438;-69
2023/04/29 07:15:12;;;;;;;7.90;7.20;;;;;;;15.93;65.03;97700.91;8284040;28;20290;-70
2023/04/29 07:19:15;;;;;;;8.17;7.53;;;;;;;16.03;65.22;97698.53;8283929;28;20227;-70
2023/04/29 07:23:19;;;;;;;7.50;7.00;;;;;;;16.17;64.57;97698.34;8283460;28;20323;-71
2023/04/29 07:27:22;;;;;;;7.53;6.93;;;;;;;15.96;64.05;97665.94;8283311;28;20310;-70
2023/04/29 07:31:25;;;;;;;7.20;6.50;;;;;;;16.36;64.40;97707.50;8282304;28;20285;-69
2023/04/29 07:35:28;;;;;;;7.57;6.97;;;;;;;16.25;64.20;97704.81;8283208;28;20329;-69
2023/04/29 07:39:34;;;;;;;7.73;7.13;;;;;;;16.26;63.86;97711.69;8283312;28;20549;-69
2023/04/29 07:43:37;;;;;;;9.00;8.30;;;;;;;16.24;63.77;97719.66;8282878;28;20299;-70
2023/04/29 07:47:42;;;;;;;8.77;8.07;;;;;;;16.44;62.87;97723.44;8283116;28;20228;-68
2023/04/29 07:51:45;;;;;;;9.00;8.30;;;;;;;16.59;62.84;97724.13;8282914;28;20246;-69
2023/04/29 07:55:50;;;;;;;7.60;7.00;;;;;;;16.87;60.83;97722.97;8282660;28;20235;-70
2023/04/29 07:59:54;;;;;;;7.23;6.73;;;;;;;16.87;61.12;97733.44;8282845;28;20233;-69
2023/04/29 08:03:56;;;;;;;7.67;6.97;;;;;;;16.22;62.77;97732.84;8282450;28;20574;-69
2023/04/29 08:07:59;;;;;;;8.33;7.53;;;;;;;16.17;62.58;97728.88;8282379;28;20322;-69
2023/04/29 08:12:04;;;;;;;7.13;6.63;;;;;;;16.18;63.53;97743.59;8282094;28;20426;-69
2023/04/29 08:16:08;;;;;;;6.83;6.33;;;;;;;16.53;62.04;97750.72;8282111;28;20229;-69
2023/04/29 08:20:12;;;;;;;4.03;3.63;;;;;;;16.63;64.32;97756.13;8281949;28;20227;-69
2023/04/29 08:24:14;;;;;;;6.53;6.03;;;;;;;16.68;61.96;97761.81;8281825;28;20536;-70
2023/04/29 08:28:19;;;;;;;6.80;6.30;;;;;;;16.52;62.30;97762.09;8281447;28;20234;-71
2023/04/29 08:32:22;;;;;;;6.53;6.07;;;;;;;16.45;61.91;97769.56;8281455;28;20222;-70
2023/04/29 08:36:27;;;;;;;5.23;4.73;;;;;;;16.25;62.53;97754.47;8281393;28;20497;-70
2023/04/29 08:40:30;;;;;;;5.73;5.23;;;;;;;16.46;61.93;97771.22;8281206;28;20375;-70
2023/04/29 08:44:35;;;;;;;4.83;4.53;;;;;;;16.20;62.14;97773.91;8280589;28;20237;-69
2023/04/29 08:48:39;;;;;;;5.77;5.27;;;;;;;15.67;62.89;97764.53;8280523;28;20290;-70
2023/04/29 08:52:46;;;;;;;5.87;5.47;;;;;;;16.28;62.02;97768.16;8280516;28;20229;-70
2023/04/29 08:56:49;;;;;;;7.07;6.47;;;;;;;16.30;61.87;97794.19;8280578;28;20405;-70
2023/04/29 09:00:53;;;;;;;6.50;6.00;;;;;;;16.31;60.02;97796.66;8280158;28;20227;-70
2023/04/29 09:05:03;;;;;;;6.10;5.70;;;;;;;16.44;60.25;97799.25;8280100;28;20231;-70
2023/04/29 09:09:07;;;;;;;6.87;6.37;;;;;;;16.54;59.40;97762.81;8280337;28;20232;-70
2023/04/29 09:13:10;;;;;;;6.83;6.33;;;;;;;16.49;59.96;97809.38;8280137;28;20243;-70
2023/04/29 09:17:15;;;;;;;5.80;5.40;;;;;;;17.17;57.95;97803.59;8279637;28;20232;-70
2023/04/29 09:21:19;;;;;;;5.40;5.00;;;;;;;17.08;57.59;97804.25;8277877;28;20253;-70
2023/04/29 09:25:26;;;;;;;5.80;5.40;;;;;;;17.07;56.59;97810.44;8279878;28;20299;-70
2023/04/29 09:29:31;;;;;;;4.93;4.57;;;;;;;17.16;55.94;97804.53;8280097;28;20481;-70
2023/04/29 09:38:13;;;;;;;6.40;5.90;;;;;;;17.05;55.38;97793.19;8376946;27;20643;-70
2023/04/29 09:42:17;;;;;;;5.80;5.40;;;;;;;17.04;54.58;97809.81;8373090;28;20287;-69
2023/04/29 09:46:20;;;;;;;5.27;4.87;;;;;;;17.48;53.71;97817.00;8372416;28;20259;-69
2023/04/29 09:50:23;;;;;;;6.57;5.97;;;;;;;17.55;53.67;97812.97;8373289;28;20315;-70
2023/04/29 09:54:30;;;;;;;6.63;6.13;;;;;;;17.12;53.95;97816.16;8373346;28;20239;-70
2023/04/29 09:58:36;;;;;;;5.70;5.30;;;;;;;17.00;54.13;97817.03;8372712;28;20255;-70
2023/04/29 10:02:41;;;;;;;6.60;5.50;;;;;;;17.51;53.72;97814.13;8372631;28;20334;-70
2023/04/29 10:06:45;;;;;;;5.90;3.87;;;;;;;18.16;58.44;97823.22;8401155;28;20499;-69
2023/04/29 10:10:56;;;;;;;5.03;4.70;;;;;;;18.34;52.09;97810.44;8405711;28;20231;-68
2023/04/29 10:15:03;;;;;;;4.40;3.97;;;;;;;18.80;51.12;97813.84;8405465;28;20238;-68
2023/04/29 10:19:08;;;;;;;5.37;4.97;;;;;;;17.82;51.03;97824.94;8405146;28;20349;-69
2023/04/29 10:23:11;;;;;;;5.20;4.80;;;;;;;17.19;51.99;97749.34;8403866;28;20231;-68
2023/04/29 10:27:20;;;;;;;5.53;5.13;;;;;;;17.84;50.79;97825.69;8405063;28;20254;-68
2023/04/29 10:31:22;;;;;;;4.93;4.47;;;;;;;18.23;50.17;97827.97;8404478;28;20561;-73
2023/04/29 10:35:26;;;;;;;4.90;4.50;;;;;;;17.68;51.81;97833.00;8404790;28;20232;-74
2023/04/29 10:39:35;;;;;;;5.00;4.60;;;;;;;17.39;51.13;97801.97;8405722;27;20227;-73
2023/04/29 10:43:39;;;;;;;5.30;4.90;;;;;;;17.12;52.52;97831.88;8404745;28;20551;-74
2023/04/29 10:47:42;;;;;;;4.50;4.10;;;;;;;17.63;51.45;97832.50;8392055;28;20274;-75
2023/04/29 10:51:46;;;;;;;5.60;5.10;;;;;;;16.86;52.71;97822.47;8383223;28;20257;-73
2023/04/29 10:55:54;;;;;;;6.00;5.53;;;;;;;16.93;53.47;97844.63;8382727;28;20501;-71
2023/04/29 10:59:59;;;;;;;22.20;20.00;;;;;;;17.69;54.37;97835.50;8382168;28;20228;-71
2023/04/29 11:04:03;;;;;;;32.73;29.43;;;;;;;17.72;53.65;97839.66;8382337;28;20231;-71
2023/04/29 11:08:11;;;;;;;60.83;51.63;;;;;;;18.30;55.77;97835.22;8381681;28;20231;-71
2023/04/29 11:12:20;;;;;;;62.83;47.83;;;;;;;18.37;53.77;97835.56;8381469;28;20225;-72
2023/04/29 11:16:28;;;;;;;12.77;11.67;;;;;;;18.08;51.18;97828.19;8381455;28;20229;-72
2023/04/29 11:21:12;;;;;;;19.33;17.43;;;;;;;18.00;54.40;97843.66;8381633;28;20228;-72
2023/04/29 11:25:15;;;;;;;22.27;20.20;;;;;;;17.57;52.97;97846.88;8381212;28;20438;-74
2023/04/29 11:29:18;;;;;;;37.90;34.10;;;;;;;18.10;53.99;97851.66;8381273;28;20232;-68
2023/04/29 11:33:22;;;;;;;5.40;5.00;;;;;;;17.24;50.50;97847.63;8381041;28;20300;-71
2023/04/29 11:37:26;;;;;;;10.33;9.37;;;;;;;17.68;52.06;97849.53;8380374;28;20229;-74
2023/04/29 11:41:30;;;;;;;8.83;8.10;;;;;;;17.79;51.73;97846.94;8380844;28;20563;-73
2023/04/29 11:45:35;;;;;;;5.73;4.70;;;;;;;17.71;50.90;97865.03;8380568;28;20228;-73
2023/04/29 11:49:41;;;;;;;6.57;6.03;;;;;;;17.54;51.16;97866.28;8380201;28;20227;-73
2023/04/29 11:53:45;;;;;;;5.50;5.10;;;;;;;17.83;51.01;97870.28;8380468;28;20509;-69
2023/04/29 11:57:49;;;;;;;6.13;5.63;;;;;;;18.00;51.27;97874.28;8378889;28;20264;-68
2023/04/29 12:01:54;;;;;;;5.50;5.10;;;;;;;17.40;51.87;97879.53;8380099;28;20235;-69
2023/04/29 12:05:58;;;;;;;4.07;3.77;;;;;;;17.65;50.60;97868.13;8379933;28;20236;-69
2023/04/29 12:10:01;;;;;;;4.83;4.40;;;;;;;17.81;51.79;97880.06;8379893;28;20268;-69
2023/04/29 12:14:05;;;;;;;3.70;3.40;;;;;;;17.37;50.38;97878.00;8379994;28;20539;-69
2023/04/29 12:18:08;;;;;;;3.50;3.20;;;;;;;17.31;51.68;97883.69;8379316;28;20225;-70
2023/04/29 12:22:12;;;;;;;4.60;4.30;;;;;;;17.71;51.39;97878.13;8378866;28;20228;-68
2023/04/29 12:26:16;;;;;;;3.73;3.30;;;;;;;17.94;51.42;97879.03;8379428;28;20241;-68
2023/04/29 12:30:20;;;;;;;4.17;3.83;;;;;;;17.95;51.37;97879.84;8378451;28;20236;-69
2023/04/29 12:34:26;;;;;;;3.50;3.20;;;;;;;18.02;50.70;97880.25;8379178;28;20229;-69
2023/04/29 12:38:31;;;;;;;3.77;3.57;;;;;;;17.72;50.52;97877.16;8377778;28;20229;-69
2023/04/29 12:42:34;;;;;;;3.47;3.23;;;;;;;17.79;50.31;97882.78;8379510;28;20226;-68
2023/04/29 12:46:38;;;;;;;2.70;2.50;;;;;;;17.80;49.17;97879.22;8377937;28;20239;-68
2023/04/29 12:50:42;;;;;;;2.77;2.60;;;;;;;17.24;47.29;97885.06;8378504;28;20300;-69
2023/04/29 12:54:46;;;;;;;3.17;2.60;;;;;;;17.86;47.64;97893.66;8378727;28;20305;-69
2023/04/29 12:58:49;;;;;;;2.60;2.40;;;;;;;17.40;47.84;97892.63;8378585;28;20242;-69
2023/04/29 13:02:53;;;;;;;2.33;2.13;;;;;;;17.28;48.30;97881.28;8378349;28;20228;-69
2023/04/29 13:06:59;;;;;;;2.07;1.97;;;;;;;17.80;47.47;97889.72;8378328;28;20274;-69
2023/04/29 13:11:03;;;;;;;2.33;2.13;;;;;;;17.59;47.72;97886.88;8377935;28;20231;-69
2023/04/29 13:15:09;;;;;;;2.30;2.20;;;;;;;17.03;48.44;97890.09;8378236;28;20231;-69
2023/04/29 13:19:12;;;;;;;2.70;2.50;;;;;;;17.69;47.50;97889.66;8378236;28;20224;-69
2023/04/29 13:23:19;;;;;;;2.37;2.17;;;;;;;17.59;47.25;97887.72;8377233;28;20229;-69
2023/04/29 13:27:24;;;;;;;2.10;2.00;;;;;;;17.77;47.71;97882.06;8377711;28;20233;-69
2023/04/29 13:31:29;;;;;;;2.57;2.40;;;;;;;17.32;48.33;97885.34;8378038;28;20232;-69
2023/04/29 13:35:34;;;;;;;3.00;2.80;;;;;;;17.06;50.62;97894.25;8376916;28;20300;-69
2023/04/29 13:39:37;;;;;;;2.70;2.60;;;;;;;16.96;49.98;97891.47;8377239;28;20273;-69
2023/04/29 13:43:41;;;;;;;3.13;2.90;;;;;;;17.11;50.53;97895.59;8377458;28;20228;-69
2023/04/29 13:47:45;;;;;;;2.83;2.63;;;;;;;17.19;50.38;97888.03;8377526;28;20339;-69
2023/04/29 13:52:08;;;;;;;2.27;2.17;;;;;;;17.13;49.28;97898.09;8377434;28;20240;-69
2023/04/29 13:56:13;;;;;;;2.47;2.13;;;;;;;17.05;48.79;97903.06;8376951;28;20247;-69
2023/04/29 14:00:39;;;;;;;2.30;2.10;;;;;;;16.88;49.43;97901.66;8377190;28;20520;-69
2023/04/29 14:04:45;;;;;;;2.30;2.20;;;;;;;16.84;49.32;97910.66;8377272;28;20231;-69
2023/04/29 14:08:48;;;;;;;2.30;2.20;;;;;;;16.62;49.97;97909.53;8377100;28;20228;-68
2023/04/29 14:12:51;;;;;;;2.43;2.23;;;;;;;17.26;49.56;97903.28;8377011;28;20293;-69
2023/04/29 14:16:55;;;;;;;2.30;2.10;;;;;;;17.30;49.41;97902.94;8377006;28;20244;-69
2023/04/29 14:20:58;;;;;;;2.63;2.43;;;;;;;16.96;51.01;97912.38;8377167;28;20686;-69
2023/04/29 14:25:01;;;;;;;3.20;2.63;;;;;;;17.24;50.82;97913.88;8383265;28;20248;-69
2023/04/29 14:29:04;;;;;;;3.47;2.73;;;;;;;17.19;51.10;97924.69;8383060;28;20223;-69
2023/04/29 14:33:10;;;;;;;3.37;3.10;;;;;;;17.15;50.47;97918.00;8382990;28;20232;-69
2023/04/29 14:37:13;;;;;;;6.67;4.60;;;;;;;17.62;57.08;97927.72;8382316;28;20232;-68
2023/04/29 14:41:16;;;;;;;5.13;4.47;;;;;;;18.31;59.21;97935.66;8382175;28;20236;-67
2023/04/29 14:45:19;;;;;;;4.97;3.80;;;;;;;18.69;56.45;97935.31;8382033;28;20241;-68
2023/04/29 14:49:23;;;;;;;4.13;3.60;;;;;;;18.40;54.57;97936.75;8382521;28;20249;-68
2023/04/29 14:53:25;;;;;;;4.37;3.63;;;;;;;18.89;54.37;97932.97;8382273;28;20236;-68
2023/04/29 14:57:28;;;;;;;3.80;3.40;;;;;;;18.99;53.26;97927.84;8381986;28;20240;-68
2023/04/29 15:01:31;;;;;;;3.67;3.37;;;;;;;18.93;50.75;97950.16;8381664;28;20423;-68
2023/04/29 15:05:36;;;;;;;4.50;3.67;;;;;;;19.02;53.35;97949.41;8381660;28;20458;-68
2023/04/29 15:09:39;;;;;;;5.07;3.27;;;;;;;18.80;53.78;97937.16;8381342;28;20235;-68
2023/04/29 15:13:44;;;;;;;3.60;3.30;;;;;;;18.68;54.01;97951.19;8381268;28;20428;-68
2023/04/29 15:17:46;;;;;;;3.00;2.80;;;;;;;18.84;53.53;97949.06;8381247;28;20477;-68
2023/04/29 15:21:51;;;;;;;3.07;2.87;;;;;;;18.53;52.17;97968.94;8381248;28;20239;-69
2023/04/29 15:25:56;;;;;;;4.43;3.00;;;;;;;18.49;53.04;97970.97;8381477;28;20231;-68
2023/04/29 15:29:59;;;;;;;3.10;2.77;;;;;;;18.39;53.74;97974.41;8381324;28;20232;-68
2023/04/29 15:34:02;;;;;;;4.30;2.43;;;;;;;18.72;52.11;97976.25;8381179;28;20229;-69
2023/04/29 15:38:07;;;;;;;4.20;2.30;;;;;;;18.78;50.68;97974.94;8381601;28;20232;-68
2023/04/29 15:42:09;;;;;;;4.17;3.77;;;;;;;17.90;48.29;97973.69;8380814;28;20563;-69
2023/04/29 15:46:12;;;;;;;2.90;2.70;;;;;;;17.70;49.16;97975.13;8380831;28;20225;-69
2023/04/29 15:50:15;;;;;;;2.57;2.47;;;;;;;17.57;49.03;97977.78;8380607;28;20507;-69
2023/04/29 15:54:20;;;;;;;1.77;1.67;;;;;;;17.67;49.41;97985.81;8379449;28;20573;-70
2023/04/29 15:58:23;;;;;;;1.80;1.70;;;;;;;17.50;49.76;97987.91;8380188;28;20235;-69
2023/04/29 16:02:26;;;;;;;1.20;1.20;;;;;;;17.32;50.31;97990.03;8380616;28;20239;-70
2023/04/29 16:06:29;;;;;;;1.70;1.60;;;;;;;17.38;49.95;98000.09;8380033;28;20521;-69
2023/04/29 16:10:33;;;;;;;1.90;1.80;;;;;;;17.00;50.83;97987.09;8380294;28;20257;-69
2023/04/29 16:14:36;;;;;;;1.57;1.47;;;;;;;17.31;50.45;98000.63;8380468;28;20229;-69
2023/04/29 16:18:39;;;;;;;1.83;1.43;;;;;;;16.93;51.54;98007.63;8380365;28;20235;-70
2023/04/29 16:22:42;;;;;;;2.00;1.90;;;;;;;16.96;50.56;98011.78;8379752;28;20593;-69
2023/04/29 16:26:47;;;;;;;1.97;1.50;;;;;;;17.29;51.00;98010.38;8380068;28;20239;-69
2023/04/29 16:30:49;;;;;;;1.67;1.53;;;;;;;16.94;51.37;98016.28;8379951;28;20228;-72
2023/04/29 16:34:52;;;;;;;1.50;1.40;;;;;;;17.10;51.33;98010.84;8379607;28;20246;-69
2023/04/29 16:38:56;;;;;;;1.40;1.30;;;;;;;16.93;52.28;98020.69;8378898;28;20242;-69
2023/04/29 16:43:01;;;;;;;1.50;1.40;;;;;;;17.00;51.75;98015.84;8379730;28;20227;-69
2023/04/29 16:47:03;;;;;;;2.30;1.80;;;;;;;16.67;52.39;98029.47;8378762;28;20512;-70
2023/04/29 16:51:06;;;;;;;1.90;1.80;;;;;;;16.81;51.83;98030.19;8378813;28;20238;-70
2023/04/29 16:55:10;;;;;;;2.30;2.10;;;;;;;16.69;50.86;98035.44;8378753;28;20514;-69
2023/04/29 16:59:15;;;;;;;2.40;2.30;;;;;;;16.55;49.87;98033.75;8378346;28;20239;-69
2023/04/29 17:03:18;;;;;;;1.97;1.87;;;;;;;16.64;49.56;98035.75;8378058;28;20239;-70
2023/04/29 17:07:21;;;;;;;1.97;1.87;;;;;;;16.46;49.71;98045.66;8378311;28;20520;-70
2023/04/29 17:11:24;;;;;;;3.87;2.27;;;;;;;16.29;49.94;98038.94;8377852;28;20526;-70
2023/04/29 17:15:29;;;;;;;2.33;2.10;;;;;;;16.33;50.25;98052.66;8377965;28;20244;-70
2023/04/29 17:19:34;;;;;;;2.00;1.80;;;;;;;16.49;49.83;98055.91;8378015;28;20241;-70
2023/04/29 17:23:37;;;;;;;3.10;2.77;;;;;;;16.21;50.72;98052.50;8378081;28;20525;-69
2023/04/29 17:27:40;;;;;;;3.77;3.47;;;;;;;16.27;51.18;98053.88;8377903;28;20373;-70
2023/04/29 17:31:53;;;;;;;3.77;2.60;;;;;;;16.21;51.51;98062.97;8377638;28;20397;-70
2023/04/29 17:35:56;;;;;;;2.80;2.60;;;;;;;16.16;51.37;98066.81;8377488;28;20225;-69
2023/04/29 17:39:59;;;;;;;3.10;2.90;;;;;;;16.20;51.29;98068.28;8377615;28;20558;-70
2023/04/29 17:44:01;;;;;;;3.20;3.00;;;;;;;16.03;51.59;98070.25;8377185;28;20229;-71
2023/04/29 17:48:06;;;;;;;3.00;2.80;;;;;;;16.00;51.84;98070.44;8377543;28;20421;-70
2023/04/29 17:52:09;;;;;;;2.80;2.60;;;;;;;16.10;51.39;98073.28;8377449;28;20257;-70
2023/04/29 17:56:12;;;;;;;2.40;2.30;;;;;;;16.27;51.32;98079.19;8377829;28;20294;-69
2023/04/29 18:00:15;;;;;;;3.10;2.90;;;;;;;16.12;51.77;98078.41;8384288;28;20234;-70
2023/04/29 18:04:19;;;;;;;3.07;2.67;;;;;;;16.14;52.10;98090.44;8383757;28;20376;-71
2023/04/29 18:08:22;;;;;;;2.90;2.70;;;;;;;16.15;51.89;98083.44;8383839;28;20261;-70
2023/04/29 18:12:25;;;;;;;2.60;2.40;;;;;;;16.16;52.10;98103.41;8383430;28;20579;-70
2023/04/29 18:16:28;;;;;;;2.90;2.70;;;;;;;16.00;52.29;98103.56;8383288;28;20233;-70
2023/04/29 18:20:32;;;;;;;3.13;2.93;;;;;;;16.03;52.59;98109.44;8382746;28;20237;-70
2023/04/29 18:24:35;;;;;;;3.23;3.03;;;;;;;16.10;52.03;98107.25;8382694;28;20237;-70
2023/04/29 18:28:38;;;;;;;3.00;2.80;;;;;;;16.16;52.15;98112.09;8382891;28;20232;-70
2023/04/29 18:32:40;;;;;;;2.87;2.67;;;;;;;16.09;52.29;98113.41;8382332;28;20228;-70
2023/04/29 18:36:45;;;;;;;4.20;3.80;;;;;;;15.95;52.30;98096.00;8382465;28;20363;-70
2023/04/29 18:40:48;;;;;;;3.80;3.50;;;;;;;16.00;52.60;98116.63;8381719;28;20229;-70
2023/04/29 18:44:51;;;;;;;4.63;4.30;;;;;;;15.93;52.47;98113.53;8382382;28;20227;-70
2023/04/29 18:48:54;;;;;;;5.20;4.70;;;;;;;15.82;52.72;98123.81;8382349;28;20448;-70
2023/04/29 18:52:58;;;;;;;45.70;35.77;;;;;;;15.88;52.14;98126.06;8382508;28;20240;-68
2023/04/29 18:57:01;;;;;;;8.80;7.90;;;;;;;15.75;52.59;98136.44;8382163;28;20230;-68
2023/04/29 19:01:04;;;;;;;6.67;6.07;;;;;;;15.78;52.38;98145.84;8382941;28;20234;-70
2023/04/29 19:05:13;;;;;;;7.40;6.70;;;;;;;15.87;52.06;98145.28;8381797;28;20470;-70
2023/04/29 19:09:18;;;;;;;6.10;5.60;;;;;;;15.55;52.68;98157.69;8380965;28;20259;-71